Time,TemperatureF,DewpointF,PressureIn,WindDirection,WindDirectionDegrees,WindSpeedMPH,WindSpeedGustMPH,Humidity,HourlyPrecipIn,Conditions,Clouds,dailyrainin,SoftwareType,DateUTC
2013-07-10 00:00:00,66.4,60.4,29.97,North,357,0.0,3.6,81,0.00,,OVC035,0.00,VWS V14.00,2013-07-10 04:00:00,
2013-07-10 00:02:00,66.4,60.4,29.97,North,7,0.0,0.0,81,0.00,,OVC035,0.00,VWS V14.00,2013-07-10 04:02:00,
2013-07-10 00:04:00,66.4,60.4,29.97,NNE,30,0.0,0.0,81,0.00,,OVC035,0.00,VWS V14.00,2013-07-10 04:04:00,
2013-07-10 00:07:00,66.4,60.4,29.97,North,357,0.0,0.0,81,0.00,,OVC035,0.00,VWS V14.00,2013-07-10 04:07:00,
2013-07-10 00:10:00,66.4,60.7,29.97,North,7,0.0,0.0,82,0.00,,OVC035,0.00,VWS V14.00,2013-07-10 04:10:00,
2013-07-10 00:14:00,66.4,60.7,29.97,North,357,0.0,0.0,82,0.00,,OVC035,0.00,VWS V14.00,2013-07-10 04:14:00,
2013-07-10 00:20:00,66.4,60.7,29.97,North,4,2.7,3.1,82,0.00,,OVC035,0.00,VWS V14.00,2013-07-10 04:20:00,
2013-07-10 00:25:00,66.4,61.1,29.97,North,7,0.0,4.9,83,0.00,,OVC035,0.00,VWS V14.00,2013-07-10 04:25:00,
2013-07-10 00:32:00,66.4,61.1,29.97,North,0,3.1,3.6,83,0.00,,OVC035,0.00,VWS V14.00,2013-07-10 04:32:00,
2013-07-10 00:39:00,66.2,60.9,29.97,NNW,327,0.0,3.6,83,0.00,,OVC035,0.00,VWS V14.00,2013-07-10 04:39:00,
2013-07-10 00:47:00,66.2,61.2,29.97,North,357,0.0,3.1,84,0.00,,OVC035,0.00,VWS V14.00,2013-07-10 04:47:00,
2013-07-10 00:54:00,66.2,61.2,29.97,North,0,0.0,2.7,84,0.00,,OVC035,0.00,VWS V14.00,2013-07-10 04:54:00,
2013-07-10 01:00:00,66.2,61.2,29.97,North,7,0.0,2.7,84,0.00,,OVC035,0.00,VWS V14.00,2013-07-10 05:00:00,
2013-07-10 01:05:00,66.2,61.6,29.94,North,0,4.9,4.9,85,0.00,,OVC019,0.00,VWS V14.00,2013-07-10 05:05:00,
2013-07-10 01:12:00,66.2,61.6,29.94,North,0,0.0,0.0,85,0.00,,OVC019,0.00,VWS V14.00,2013-07-10 05:12:00,
2013-07-10 01:19:00,66.2,61.6,29.97,North,0,0.0,0.0,85,0.00,,OVC019,0.00,VWS V14.00,2013-07-10 05:19:00,
2013-07-10 01:26:00,66.0,61.7,29.97,North,0,0.0,0.0,86,0.00,,OVC019,0.00,VWS V14.00,2013-07-10 05:26:00,
2013-07-10 01:33:00,66.2,61.9,29.97,North,0,0.0,0.0,86,0.00,,OVC019,0.00,VWS V14.00,2013-07-10 05:33:00,
2013-07-10 01:40:00,66.2,61.9,29.97,SW,226,0.0,3.6,86,0.00,,OVC019,0.00,VWS V14.00,2013-07-10 05:40:00,
2013-07-10 01:45:00,66.2,61.9,29.97,SW,229,0.0,2.7,86,0.00,,OVC019,0.00,VWS V14.00,2013-07-10 05:45:00,
2013-07-10 01:52:00,66.2,61.9,29.97,SSE,154,0.0,0.0,86,0.00,,OVC019,0.00,VWS V14.00,2013-07-10 05:52:00,
2013-07-10 01:59:00,66.2,61.9,29.97,SSW,212,0.0,0.0,86,0.00,,OVC019,0.00,VWS V14.00,2013-07-10 05:59:00,
2013-07-10 02:06:00,66.2,61.9,29.97,SSW,212,0.0,0.0,86,0.00,,OVC017,0.00,VWS V14.00,2013-07-10 06:06:00,
2013-07-10 02:13:00,66.2,61.9,29.97,SSW,212,0.0,0.0,86,0.00,,OVC017,0.00,VWS V14.00,2013-07-10 06:13:00,
2013-07-10 02:20:00,66.2,62.2,29.94,West,276,0.0,0.0,87,0.00,,OVC017,0.00,VWS V14.00,2013-07-10 06:20:00,
2013-07-10 02:25:00,66.2,62.2,29.94,NNW,335,0.0,0.0,87,0.00,,OVC017,0.00,VWS V14.00,2013-07-10 06:25:00,
2013-07-10 02:32:00,66.2,62.2,29.94,North,353,0.0,0.0,87,0.00,,OVC017,0.00,VWS V14.00,2013-07-10 06:32:00,
2013-07-10 02:39:00,66.2,62.2,29.94,North,353,0.0,0.0,87,0.00,,OVC014,0.00,VWS V14.00,2013-07-10 06:39:00,
2013-07-10 02:46:00,66.4,62.7,29.94,NNW,346,2.7,4.0,88,0.00,,OVC014,0.00,VWS V14.00,2013-07-10 06:46:00,
2013-07-10 02:53:00,66.4,62.7,29.94,North,353,0.0,0.0,88,0.00,,OVC014,0.00,VWS V14.00,2013-07-10 06:53:00,
2013-07-10 03:00:00,66.4,62.7,29.94,North,353,0.0,0.0,88,0.00,,OVC014,0.00,VWS V14.00,2013-07-10 07:00:00,
2013-07-10 03:07:00,66.4,63.0,29.94,NNW,348,0.0,2.7,89,0.00,,OVC014,0.00,VWS V14.00,2013-07-10 07:07:00,
2013-07-10 03:14:00,66.4,63.0,29.94,NNW,346,0.0,0.0,89,0.00,,OVC014,0.00,VWS V14.00,2013-07-10 07:14:00,
2013-07-10 03:20:00,66.4,63.0,29.94,NNW,340,0.0,0.0,89,0.00,,OVC014,0.00,VWS V14.00,2013-07-10 07:20:00,
2013-07-10 03:26:00,66.4,63.4,29.94,North,7,0.0,0.0,90,0.00,,OVC014,0.00,VWS V14.00,2013-07-10 07:26:00,
2013-07-10 03:33:00,66.4,63.4,29.94,North,353,0.0,0.0,90,0.00,,OVC014,0.00,VWS V14.00,2013-07-10 07:33:00,
2013-07-10 03:40:00,66.4,63.4,29.94,North,353,0.0,0.0,90,0.00,,OVC014,0.00,VWS V14.00,2013-07-10 07:40:00,
2013-07-10 03:47:00,66.4,63.4,29.94,NNW,345,0.0,0.0,90,0.00,,OVC014,0.00,VWS V14.00,2013-07-10 07:47:00,
2013-07-10 03:54:00,66.4,63.4,29.94,North,353,0.0,0.0,90,0.00,,OVC014,0.00,VWS V14.00,2013-07-10 07:54:00,
2013-07-10 04:00:00,66.4,63.4,29.94,North,353,0.0,0.0,90,0.00,,OVC014,0.00,VWS V14.00,2013-07-10 08:00:00,
2013-07-10 04:06:00,66.4,63.7,29.94,North,0,0.0,0.0,91,0.00,,OVC012,0.00,VWS V14.00,2013-07-10 08:06:00,
2013-07-10 04:13:00,66.4,63.7,29.94,NNW,341,0.0,0.0,91,0.00,,OVC004,0.00,VWS V14.00,2013-07-10 08:13:00,
2013-07-10 04:20:00,66.4,63.7,29.91,NW,308,0.0,0.0,91,0.00,,OVC004,0.00,VWS V14.00,2013-07-10 08:20:00,
2013-07-10 04:27:00,66.4,63.7,29.91,NW,307,0.0,0.0,91,0.00,,OVC004,0.00,VWS V14.00,2013-07-10 08:27:00,
2013-07-10 04:34:00,66.4,63.7,29.91,West,280,0.0,0.0,91,0.00,,OVC004,0.00,VWS V14.00,2013-07-10 08:34:00,
2013-07-10 04:40:00,66.4,63.7,29.91,SSE,157,0.0,0.0,91,0.00,,OVC004,0.00,VWS V14.00,2013-07-10 08:40:00,
2013-07-10 04:46:00,66.4,63.7,29.91,South,188,0.0,0.0,91,0.00,,OVC004,0.00,VWS V14.00,2013-07-10 08:46:00,
2013-07-10 04:53:00,66.4,64.0,29.91,SW,234,0.0,0.0,92,0.00,,OVC004,0.00,VWS V14.00,2013-07-10 08:53:00,
2013-07-10 05:00:00,66.4,64.0,29.91,South,187,0.0,0.0,92,0.00,,OVC004,0.00,VWS V14.00,2013-07-10 09:00:00,
2013-07-10 05:07:00,66.4,64.0,29.91,SSW,208,0.0,0.0,92,0.00,,OVC004,0.00,VWS V14.00,2013-07-10 09:07:00,
2013-07-10 05:14:00,66.4,64.0,29.91,West,277,0.0,0.0,92,0.00,,OVC004,0.00,VWS V14.00,2013-07-10 09:14:00,
2013-07-10 05:20:00,66.4,64.3,29.91,SSW,194,0.0,0.0,93,0.00,,OVC004,0.00,VWS V14.00,2013-07-10 09:20:00,
2013-07-10 05:25:00,66.4,64.3,29.91,NNE,22,0.0,0.0,93,0.00,,OVC004,0.00,VWS V14.00,2013-07-10 09:25:00,
2013-07-10 05:33:00,66.6,64.5,29.91,SE,137,0.0,0.0,93,0.00,,OVC004,0.00,VWS V14.00,2013-07-10 09:33:00,
2013-07-10 05:40:00,66.6,64.5,29.91,NNW,345,0.0,0.0,93,0.00,,OVC004,0.00,VWS V14.00,2013-07-10 09:40:00,
2013-07-10 05:47:00,66.6,64.5,29.91,WSW,243,0.0,0.0,93,0.00,,OVC004,0.00,VWS V14.00,2013-07-10 09:47:00,
2013-07-10 05:54:00,66.6,64.8,29.91,NNW,332,0.0,0.0,94,0.00,,OVC006,0.00,VWS V14.00,2013-07-10 09:54:00,
2013-07-10 06:00:00,66.6,64.8,29.91,NW,322,0.0,0.0,94,0.00,,OVC006,0.00,VWS V14.00,2013-07-10 10:00:00,
2013-07-10 06:05:00,66.7,65.0,29.91,North,357,0.0,0.0,94,0.00,,OVC006,0.00,VWS V14.00,2013-07-10 10:05:00,
2013-07-10 06:12:00,66.7,65.0,29.91,North,353,0.0,0.0,94,0.00,,OVC006,0.00,VWS V14.00,2013-07-10 10:12:00,
2013-07-10 06:19:00,66.9,65.1,29.91,North,4,0.0,0.0,94,0.00,,OVC006,0.00,VWS V14.00,2013-07-10 10:19:00,
2013-07-10 06:26:00,66.9,65.1,29.91,West,261,0.0,0.0,94,0.00,,OVC006,0.00,VWS V14.00,2013-07-10 10:26:00,
2013-07-10 06:33:00,67.1,65.3,29.91,NNE,12,0.0,0.0,94,0.00,,OVC006,0.00,VWS V14.00,2013-07-10 10:33:00,
2013-07-10 06:40:00,67.1,65.3,29.91,NNW,346,0.0,0.0,94,0.00,,OVC006,0.00,VWS V14.00,2013-07-10 10:40:00,
2013-07-10 06:45:00,67.3,65.5,29.91,NW,322,0.0,0.0,94,0.00,,OVC006,0.00,VWS V14.00,2013-07-10 10:45:00,
2013-07-10 06:52:00,67.3,65.5,29.91,NNE,13,0.0,0.0,94,0.00,,OVC006,0.00,VWS V14.00,2013-07-10 10:52:00,
2013-07-10 06:59:00,67.5,65.7,29.91,North,3,0.0,0.0,94,0.00,,OVC006,0.00,VWS V14.00,2013-07-10 10:59:00,
2013-07-10 07:06:00,67.5,65.7,29.91,North,353,0.0,0.0,94,0.00,,,0.00,VWS V14.00,2013-07-10 11:06:00,
2013-07-10 07:13:00,67.6,65.6,29.91,North,353,0.0,0.0,93,0.00,,,0.00,VWS V14.00,2013-07-10 11:13:00,
2013-07-10 07:20:00,67.6,65.6,29.91,NNE,15,0.0,0.0,93,0.00,,,0.00,VWS V14.00,2013-07-10 11:20:00,
2013-07-10 07:25:00,67.6,65.6,29.91,North,353,0.0,0.0,93,0.00,,,0.00,VWS V14.00,2013-07-10 11:25:00,
2013-07-10 07:32:00,67.6,65.6,29.91,NNE,14,0.0,0.0,93,0.00,,,0.00,VWS V14.00,2013-07-10 11:32:00,
2013-07-10 07:39:00,67.6,65.6,29.91,NE,49,0.0,0.0,93,0.00,,,0.00,VWS V14.00,2013-07-10 11:39:00,
2013-07-10 07:46:00,67.8,65.7,29.91,NNW,328,0.0,0.0,93,0.00,,,0.00,VWS V14.00,2013-07-10 11:46:00,
2013-07-10 07:53:00,67.8,65.7,29.91,North,357,0.0,0.0,93,0.00,,,0.00,VWS V14.00,2013-07-10 11:53:00,
2013-07-10 08:00:00,67.8,65.4,29.91,North,9,0.0,0.0,92,0.00,,,0.00,VWS V14.00,2013-07-10 12:00:00,
2013-07-10 08:07:00,67.8,65.7,29.91,West,269,0.0,0.0,93,0.00,,,0.00,VWS V14.00,2013-07-10 12:07:00,
2013-07-10 08:14:00,68.0,65.6,29.91,WNW,303,0.0,0.0,92,0.00,,,0.00,VWS V14.00,2013-07-10 12:14:00,
2013-07-10 08:20:00,68.0,65.6,29.91,WNW,285,0.0,0.0,92,0.00,,,0.00,VWS V14.00,2013-07-10 12:20:00,
2013-07-10 08:26:00,68.2,65.8,29.91,SSW,201,0.0,0.0,92,0.00,,,0.00,VWS V14.00,2013-07-10 12:26:00,
2013-07-10 08:33:00,68.4,65.9,29.91,WNW,303,0.0,0.0,92,0.00,,,0.00,VWS V14.00,2013-07-10 12:33:00,
2013-07-10 08:40:00,68.7,66.3,29.91,West,276,0.0,0.0,92,0.00,,,0.00,VWS V14.00,2013-07-10 12:40:00,
2013-07-10 08:47:00,68.9,66.2,29.91,North,349,0.0,0.0,91,0.00,,,0.00,VWS V14.00,2013-07-10 12:47:00,
2013-07-10 08:54:00,68.9,65.8,29.88,NW,310,0.0,0.0,90,0.00,,,0.00,VWS V14.00,2013-07-10 12:54:00,
2013-07-10 09:00:00,68.9,65.5,29.88,West,276,0.0,0.0,89,0.00,,,0.00,VWS V14.00,2013-07-10 13:00:00,
2013-07-10 09:06:00,69.1,65.7,29.88,SSW,204,0.0,0.0,89,0.00,,,0.00,VWS V14.00,2013-07-10 13:06:00,
2013-07-10 09:13:00,69.4,66.1,29.88,North,353,0.0,0.0,89,0.00,,,0.00,VWS V14.00,2013-07-10 13:13:00,
2013-07-10 09:20:00,69.4,65.4,29.88,West,278,0.0,0.0,87,0.00,,,0.00,VWS V14.00,2013-07-10 13:20:00,
2013-07-10 09:27:00,69.4,65.1,29.88,SE,141,0.0,0.0,86,0.00,,,0.00,VWS V14.00,2013-07-10 13:27:00,
2013-07-10 09:34:00,69.4,65.1,29.88,SSW,193,0.0,0.0,86,0.00,,,0.00,VWS V14.00,2013-07-10 13:34:00,
2013-07-10 09:40:00,69.8,65.4,29.88,SSW,207,0.0,0.0,86,0.00,,,0.00,VWS V14.00,2013-07-10 13:40:00,
2013-07-10 09:46:00,69.8,65.4,29.88,West,277,0.0,0.0,86,0.00,,,0.00,VWS V14.00,2013-07-10 13:46:00,
2013-07-10 09:53:00,69.8,65.1,29.88,SW,214,0.0,0.0,85,0.00,,,0.00,VWS V14.00,2013-07-10 13:53:00,
2013-07-10 10:00:00,69.8,65.4,29.88,West,274,0.0,0.0,86,0.00,,,0.00,VWS V14.00,2013-07-10 14:00:00,
2013-07-10 10:07:00,69.8,65.4,29.88,WNW,293,0.0,0.0,86,0.00,,,0.00,VWS V14.00,2013-07-10 14:07:00,
2013-07-10 10:14:00,70.2,66.1,29.88,South,190,4.0,5.8,87,0.00,,,0.00,VWS V14.00,2013-07-10 14:14:00,
2013-07-10 10:20:00,70.0,65.9,29.88,WNW,285,0.0,5.8,87,0.00,,,0.00,VWS V14.00,2013-07-10 14:20:00,
2013-07-10 10:26:00,70.3,66.3,29.88,SSE,151,0.0,3.6,87,0.00,,,0.00,VWS V14.00,2013-07-10 14:26:00,
2013-07-10 10:33:00,70.5,66.5,29.88,West,274,2.7,6.3,87,0.00,,,0.00,VWS V14.00,2013-07-10 14:33:00,
2013-07-10 10:40:00,70.5,66.1,29.85,SSW,212,2.7,6.3,86,0.00,,,0.00,VWS V14.00,2013-07-10 14:40:00,
2013-07-10 10:47:00,70.7,66.3,29.85,SW,214,0.0,3.6,86,0.00,,,0.00,VWS V14.00,2013-07-10 14:47:00,
2013-07-10 10:54:00,70.9,66.5,29.85,SSE,156,0.0,4.0,86,0.00,,,0.00,VWS V14.00,2013-07-10 14:54:00,
2013-07-10 11:00:00,70.9,65.8,29.85,WSW,249,2.2,4.0,84,0.00,,,0.00,VWS V14.00,2013-07-10 15:00:00,
2013-07-10 11:05:00,71.1,66.3,29.85,SW,227,4.5,4.5,85,0.00,,,0.00,VWS V14.00,2013-07-10 15:05:00,
2013-07-10 11:12:00,71.1,66.0,29.85,NNW,343,4.9,5.4,84,0.00,,,0.00,VWS V14.00,2013-07-10 15:12:00,
2013-07-10 11:19:00,71.1,66.0,29.85,SW,225,3.6,7.2,84,0.00,,,0.00,VWS V14.00,2013-07-10 15:19:00,
2013-07-10 11:26:00,71.4,66.3,29.85,SW,234,3.1,6.3,84,0.00,,,0.00,VWS V14.00,2013-07-10 15:26:00,
2013-07-10 11:34:00,71.8,66.7,29.85,SE,140,0.0,5.8,84,0.00,,,0.00,VWS V14.00,2013-07-10 15:34:00,
2013-07-10 11:40:00,72.0,66.2,29.85,SW,222,5.4,8.1,82,0.00,,,0.00,VWS V14.00,2013-07-10 15:40:00,
2013-07-10 11:45:00,72.0,65.5,29.85,SSW,211,2.2,6.3,80,0.00,,,0.00,VWS V14.00,2013-07-10 15:45:00,
2013-07-10 11:52:00,72.9,66.7,29.85,SW,218,2.7,4.0,81,0.00,,,0.00,VWS V14.00,2013-07-10 15:52:00,
2013-07-10 11:59:00,73.4,66.1,29.85,SSW,201,5.8,8.3,78,0.00,,,0.00,VWS V14.00,2013-07-10 15:59:00,
2013-07-10 12:06:00,74.1,65.3,29.85,WSW,240,4.0,8.3,74,0.00,,,0.00,VWS V14.00,2013-07-10 16:06:00,
2013-07-10 12:13:00,74.8,64.0,29.85,SW,223,5.8,5.8,69,0.00,,,0.00,VWS V14.00,2013-07-10 16:13:00,
2013-07-10 12:20:00,75.6,63.4,29.85,SW,232,5.8,6.3,66,0.00,,,0.00,VWS V14.00,2013-07-10 16:20:00,
2013-07-10 12:25:00,75.9,62.9,29.85,SW,227,2.7,10.1,64,0.00,,,0.00,VWS V14.00,2013-07-10 16:25:00,
2013-07-10 12:32:00,76.3,62.3,29.85,SW,218,5.4,7.6,62,0.00,,,0.00,VWS V14.00,2013-07-10 16:32:00,
2013-07-10 12:39:00,76.6,62.7,29.83,SW,230,6.7,8.7,62,0.00,,,0.00,VWS V14.00,2013-07-10 16:39:00,
2013-07-10 12:46:00,77.0,62.1,29.83,SW,228,3.1,5.4,60,0.00,,,0.00,VWS V14.00,2013-07-10 16:46:00,
2013-07-10 12:53:00,77.4,62.4,29.83,SSE,161,4.9,8.1,60,0.00,,,0.00,VWS V14.00,2013-07-10 16:53:00,
2013-07-10 13:00:00,77.7,63.7,29.83,SW,225,2.2,8.1,62,0.00,,,0.00,VWS V14.00,2013-07-10 17:00:00,
2013-07-10 13:07:00,78.1,62.6,29.83,SSW,204,3.6,8.3,59,0.00,,,0.00,VWS V14.00,2013-07-10 17:07:00,
2013-07-10 13:14:00,78.4,63.9,29.83,SSW,208,8.1,10.1,61,0.00,,,0.00,VWS V14.00,2013-07-10 17:14:00,
2013-07-10 13:20:00,79.0,63.9,29.83,East,95,3.1,10.5,60,0.00,,,0.00,VWS V14.00,2013-07-10 17:20:00,
2013-07-10 13:26:00,79.5,64.4,29.83,SSW,198,4.0,8.1,60,0.00,,,0.00,VWS V14.00,2013-07-10 17:26:00,
2013-07-10 13:33:00,80.1,64.5,29.83,SW,222,0.0,5.8,59,0.00,,,0.00,VWS V14.00,2013-07-10 17:33:00,
2013-07-10 13:40:00,80.6,65.0,29.80,SW,232,8.1,8.1,59,0.00,,,0.00,VWS V14.00,2013-07-10 17:40:00,
2013-07-10 13:47:00,81.0,62.8,29.80,SW,222,8.1,8.3,54,0.00,,,0.00,VWS V14.00,2013-07-10 17:47:00,
2013-07-10 13:54:00,81.0,62.2,29.80,SW,215,7.6,10.1,53,0.00,,,0.00,VWS V14.00,2013-07-10 17:54:00,
2013-07-10 14:00:00,80.6,62.4,29.80,SW,225,5.8,10.1,54,0.00,,BKN200,0.00,VWS V14.00,2013-07-10 18:00:00,
2013-07-10 14:06:00,80.6,64.0,29.80,SW,228,2.7,8.3,57,0.00,,BKN200,0.00,VWS V14.00,2013-07-10 18:06:00,
2013-07-10 14:13:00,81.0,63.3,29.80,WSW,257,5.4,6.3,55,0.00,,BKN200,0.00,VWS V14.00,2013-07-10 18:13:00,
2013-07-10 14:20:00,81.0,62.8,29.77,ESE,106,5.8,8.1,54,0.00,,BKN200,0.00,VWS V14.00,2013-07-10 18:20:00,
2013-07-10 14:27:00,80.6,61.4,29.77,South,177,4.0,7.6,52,0.00,,BKN200,0.00,VWS V14.00,2013-07-10 18:27:00,
2013-07-10 14:34:00,80.8,61.5,29.77,WSW,249,3.1,8.1,52,0.00,,BKN200,0.00,VWS V14.00,2013-07-10 18:34:00,
2013-07-10 14:40:00,81.3,63.1,29.77,SSW,206,4.9,8.1,54,0.00,,BKN200,0.00,VWS V14.00,2013-07-10 18:40:00,
2013-07-10 14:46:00,81.9,62.5,29.77,SW,223,2.2,8.3,52,0.00,,BKN200,0.00,VWS V14.00,2013-07-10 18:46:00,
2013-07-10 14:53:00,81.9,62.0,29.77,SSW,205,6.3,9.2,51,0.00,,BKN200,0.00,VWS V14.00,2013-07-10 18:53:00,
2013-07-10 15:00:00,82.4,60.8,29.77,WSW,250,5.4,11.0,48,0.00,,BKN200,0.00,VWS V14.00,2013-07-10 19:00:00,
2013-07-10 15:07:00,82.6,61.5,29.77,South,184,8.3,10.1,49,0.00,,FEW036,0.00,VWS V14.00,2013-07-10 19:07:00,
2013-07-10 15:14:00,82.8,61.7,29.77,WSW,248,2.2,8.1,49,0.00,,FEW036,0.00,VWS V14.00,2013-07-10 19:14:00,
2013-07-10 15:20:00,82.9,61.8,29.74,South,177,6.3,8.3,49,0.00,,FEW036,0.00,VWS V14.00,2013-07-10 19:20:00,
2013-07-10 15:26:00,83.5,61.2,29.74,SSW,211,5.4,8.7,47,0.00,,FEW036,0.00,VWS V14.00,2013-07-10 19:26:00,
2013-07-10 15:33:00,83.7,60.7,29.74,SSW,210,6.3,8.1,46,0.00,,FEW036,0.00,VWS V14.00,2013-07-10 19:33:00,
2013-07-10 15:40:00,83.8,61.5,29.74,SW,233,5.4,8.7,47,0.00,,FEW036,0.00,VWS V14.00,2013-07-10 19:40:00,
2013-07-10 15:47:00,84.4,61.4,29.74,South,187,7.6,11.0,46,0.00,,FEW036,0.00,VWS V14.00,2013-07-10 19:47:00,
2013-07-10 15:54:00,84.6,60.3,29.71,SSE,166,4.9,11.0,44,0.00,,FEW036,0.00,VWS V14.00,2013-07-10 19:54:00,
2013-07-10 16:00:00,84.0,59.8,29.71,SW,236,6.7,11.0,44,0.00,,FEW036,0.00,VWS V14.00,2013-07-10 20:00:00,
2013-07-10 16:05:00,84.0,60.4,29.74,SSW,209,5.4,10.1,45,0.00,,BKN150,0.00,VWS V14.00,2013-07-10 20:05:00,
2013-07-10 16:12:00,84.6,60.3,29.74,SSW,209,8.1,8.1,44,0.00,,BKN150,0.00,VWS V14.00,2013-07-10 20:12:00,
2013-07-10 16:20:00,85.3,59.6,29.74,SSW,203,5.4,8.7,42,0.00,,BKN150,0.00,VWS V14.00,2013-07-10 20:20:00,
2013-07-10 16:27:00,85.5,58.4,29.74,SW,222,8.3,10.1,40,0.00,,BKN150,0.00,VWS V14.00,2013-07-10 20:27:00,
2013-07-10 16:34:00,85.3,58.2,29.74,SSW,206,6.3,8.3,40,0.00,,BKN150,0.00,VWS V14.00,2013-07-10 20:34:00,
2013-07-10 16:40:00,85.3,58.9,29.71,SW,223,5.4,10.1,41,0.00,,BKN150,0.00,VWS V14.00,2013-07-10 20:40:00,
2013-07-10 16:45:00,85.5,59.1,29.71,SSW,201,2.7,7.6,41,0.00,,BKN150,0.00,VWS V14.00,2013-07-10 20:45:00,
2013-07-10 16:52:00,84.7,57.8,29.71,SSW,207,3.1,8.3,40,0.00,,BKN150,0.00,VWS V14.00,2013-07-10 20:52:00,
2013-07-10 16:59:00,84.4,58.8,29.71,SSW,203,6.3,8.3,42,0.00,,BKN150,0.00,VWS V14.00,2013-07-10 20:59:00,
2013-07-10 17:06:00,84.4,59.5,29.71,SW,217,0.0,8.3,43,0.00,,CLR,0.00,VWS V14.00,2013-07-10 21:06:00,
2013-07-10 17:13:00,84.2,59.3,29.71,SSW,200,5.4,6.3,43,0.00,,CLR,0.00,VWS V14.00,2013-07-10 21:13:00,
2013-07-10 17:20:00,83.7,59.5,29.71,South,184,5.8,7.6,44,0.00,,CLR,0.00,VWS V14.00,2013-07-10 21:20:00,
2013-07-10 17:25:00,83.1,59.0,29.71,SSW,213,4.0,8.1,44,0.00,,CLR,0.00,VWS V14.00,2013-07-10 21:25:00,
2013-07-10 17:32:00,82.2,58.8,29.71,SSW,202,2.7,10.5,45,0.00,,CLR,0.00,VWS V14.00,2013-07-10 21:32:00,
2013-07-10 17:39:00,81.0,58.9,29.71,SSW,212,10.5,12.3,47,0.00,,CLR,0.00,VWS V14.00,2013-07-10 21:39:00,
2013-07-10 17:46:00,80.2,59.9,29.71,SE,134,0.0,8.3,50,0.00,,CLR,0.00,VWS V14.00,2013-07-10 21:46:00,
2013-07-10 17:53:00,79.7,60.0,29.71,SW,224,5.8,9.6,51,0.00,,CLR,0.00,VWS V14.00,2013-07-10 21:53:00,
2013-07-10 18:00:00,79.5,59.8,29.71,SW,227,5.4,12.3,51,0.00,,CLR,0.00,VWS V14.00,2013-07-10 22:00:00,
2013-07-10 18:05:00,79.5,60.9,29.71,SSE,161,3.6,8.1,53,0.00,,OVC110,0.00,VWS V14.00,2013-07-10 22:05:00,
2013-07-10 18:12:00,79.5,60.9,29.71,SE,137,5.8,10.1,53,0.00,,OVC110,0.00,VWS V14.00,2013-07-10 22:12:00,
2013-07-10 18:19:00,79.3,60.7,29.71,SSW,206,4.0,11.0,53,0.00,,OVC110,0.00,VWS V14.00,2013-07-10 22:19:00,
2013-07-10 18:26:00,79.3,61.3,29.71,SSW,194,6.3,6.3,54,0.00,,OVC110,0.00,VWS V14.00,2013-07-10 22:26:00,
2013-07-10 18:33:00,79.0,60.9,29.71,South,184,4.0,7.6,54,0.00,,OVC110,0.00,VWS V14.00,2013-07-10 22:33:00,
2013-07-10 18:40:00,78.6,61.6,29.68,SW,227,5.4,8.7,56,0.00,,OVC110,0.00,VWS V14.00,2013-07-10 22:40:00,
2013-07-10 18:45:00,78.4,62.0,29.68,SW,220,5.8,8.3,57,0.00,,OVC110,0.00,VWS V14.00,2013-07-10 22:45:00,
2013-07-10 18:50:00,78.3,61.8,29.71,SW,221,4.0,8.7,57,0.00,,OVC110,0.00,VWS V14.00,2013-07-10 22:50:00,
2013-07-10 18:57:00,77.9,62.0,29.71,WSW,239,2.7,7.6,58,0.00,,BKN022,0.00,VWS V14.00,2013-07-10 22:57:00,
2013-07-10 19:04:00,77.5,62.1,29.71,SSW,212,6.7,6.7,59,0.00,,BKN022,0.00,VWS V14.00,2013-07-10 23:04:00,
2013-07-10 19:10:00,77.4,62.4,29.71,SSW,201,3.1,8.7,60,0.00,,BKN022,0.00,VWS V14.00,2013-07-10 23:10:00,
2013-07-10 19:15:00,77.4,62.9,29.71,SSW,196,6.3,6.3,61,0.00,,BKN022,0.00,VWS V14.00,2013-07-10 23:15:00,
2013-07-10 19:22:00,77.5,63.0,29.71,SSE,159,6.3,6.3,61,0.00,,BKN022,0.00,VWS V14.00,2013-07-10 23:22:00,
2013-07-10 19:29:00,77.5,63.5,29.71,SW,227,6.3,6.7,62,0.00,,BKN022,0.00,VWS V14.00,2013-07-10 23:29:00,
2013-07-10 19:36:00,77.4,63.3,29.71,SSW,199,5.4,11.0,62,0.00,,SCT022,0.00,VWS V14.00,2013-07-10 23:36:00,
2013-07-10 19:43:00,77.0,63.5,29.71,SSW,194,5.8,8.7,63,0.00,,SCT022,0.00,VWS V14.00,2013-07-10 23:43:00,
2013-07-10 19:50:00,76.8,63.7,29.71,SW,223,5.8,9.2,64,0.00,,SCT022,0.00,VWS V14.00,2013-07-10 23:50:00,
2013-07-10 19:55:00,76.5,63.8,29.71,SSW,196,3.1,8.3,65,0.00,,SCT022,0.00,VWS V14.00,2013-07-10 23:55:00,
2013-07-10 20:02:00,76.1,63.9,29.71,SSE,168,5.4,8.1,66,0.00,,FEW018,0.00,VWS V14.00,2013-07-11 00:02:00,
2013-07-10 20:09:00,75.9,64.2,29.71,SW,222,4.0,8.3,67,0.00,,FEW018,0.00,VWS V14.00,2013-07-11 00:09:00,
2013-07-10 20:16:00,75.6,64.7,29.71,SW,228,6.3,10.1,69,0.00,,FEW018,0.00,VWS V14.00,2013-07-11 00:16:00,
2013-07-10 20:23:00,75.6,65.5,29.71,South,190,4.0,7.6,71,0.00,,FEW018,0.00,VWS V14.00,2013-07-11 00:23:00,
2013-07-10 20:30:00,75.4,66.1,29.71,South,171,2.2,8.3,73,0.00,,FEW018,0.00,VWS V14.00,2013-07-11 00:30:00,
2013-07-10 20:35:00,75.4,66.1,29.71,South,172,3.1,7.6,73,0.00,,FEW018,0.00,VWS V14.00,2013-07-11 00:35:00,
2013-07-10 20:42:00,75.4,66.5,29.71,SSE,156,4.9,7.6,74,0.00,,FEW018,0.00,VWS V14.00,2013-07-11 00:42:00,
2013-07-10 20:49:00,75.4,66.5,29.71,South,171,0.0,7.6,74,0.00,,FEW018,0.00,VWS V14.00,2013-07-11 00:49:00,
2013-07-10 20:56:00,75.2,66.7,29.71,South,178,4.0,7.6,75,0.00,,-RA,0.00,VWS V14.00,2013-07-11 00:56:00,
2013-07-10 21:03:00,75.0,66.6,29.71,SSW,205,5.8,7.6,75,0.00,,-RA,0.00,VWS V14.00,2013-07-11 01:03:00,
2013-07-10 21:10:00,75.0,66.9,29.71,SW,224,3.6,8.7,76,0.00,,-RA,0.00,VWS V14.00,2013-07-11 01:10:00,
2013-07-10 21:15:00,74.8,66.8,29.71,SSW,203,6.3,8.3,76,0.00,,-RA,0.00,VWS V14.00,2013-07-11 01:15:00,
2013-07-10 21:20:00,74.8,66.8,29.71,South,176,5.8,8.3,76,0.00,,-RA,0.00,VWS V14.00,2013-07-11 01:20:00,
2013-07-10 21:27:00,74.7,67.3,29.71,SSW,211,3.6,8.3,78,0.00,,-RA,0.00,VWS V14.00,2013-07-11 01:27:00,
2013-07-10 21:34:00,74.8,67.9,29.71,South,181,4.9,6.7,79,0.00,,-RA,0.00,VWS V14.00,2013-07-11 01:34:00,
2013-07-10 21:40:00,74.8,68.3,29.71,SW,216,6.3,8.1,80,0.00,,-RA,0.00,VWS V14.00,2013-07-11 01:40:00,
2013-07-10 21:45:00,74.8,68.3,29.71,SW,231,4.0,8.7,80,0.00,,-RA,0.00,VWS V14.00,2013-07-11 01:45:00,
2013-07-10 21:52:00,74.8,68.3,29.71,South,184,7.2,7.2,80,0.00,,-RA,0.00,VWS V14.00,2013-07-11 01:52:00,
2013-07-10 21:59:00,74.8,68.3,29.71,SW,215,4.0,8.1,80,0.00,,-RA,0.00,VWS V14.00,2013-07-11 01:59:00,
2013-07-10 22:06:00,74.7,68.4,29.71,WSW,247,5.8,8.3,81,0.00,,-RA,0.00,VWS V14.00,2013-07-11 02:06:00,
2013-07-10 22:13:00,74.5,68.3,29.71,SSW,202,5.8,6.7,81,0.00,,-RA,0.00,VWS V14.00,2013-07-11 02:13:00,
2013-07-10 22:20:00,74.3,68.1,29.71,SSW,209,5.4,8.7,81,0.00,,-RA,0.00,VWS V14.00,2013-07-11 02:20:00,
2013-07-10 22:25:00,74.3,68.4,29.71,SSW,205,3.6,8.1,82,0.00,,-RA,0.00,VWS V14.00,2013-07-11 02:25:00,
2013-07-10 22:32:00,74.3,68.4,29.71,SW,215,3.6,5.8,82,0.00,,-RA,0.00,VWS V14.00,2013-07-11 02:32:00,
2013-07-10 22:39:00,74.1,68.3,29.71,SSE,154,3.6,10.1,82,0.00,,-RA,0.00,VWS V14.00,2013-07-11 02:39:00,
2013-07-10 22:46:00,74.1,68.6,29.71,SSW,198,3.1,8.1,83,0.00,,,0.00,VWS V14.00,2013-07-11 02:46:00,
2013-07-10 22:53:00,74.1,68.6,29.71,SW,224,2.7,5.8,83,0.00,,,0.00,VWS V14.00,2013-07-11 02:53:00,
2013-07-10 23:00:00,74.1,68.6,29.71,SW,220,6.3,8.1,83,0.00,,,0.00,VWS V14.00,2013-07-11 03:00:00,
2013-07-10 23:05:00,73.9,68.5,29.71,SSW,208,5.4,9.2,83,0.00,,CLR,0.00,VWS V14.00,2013-07-11 03:05:00,
2013-07-10 23:12:00,73.9,68.5,29.71,SSW,208,4.0,6.3,83,0.00,,CLR,0.00,VWS V14.00,2013-07-11 03:12:00,
2013-07-10 23:19:00,73.8,68.6,29.71,SSW,208,3.1,8.3,84,0.00,,CLR,0.00,VWS V14.00,2013-07-11 03:19:00,
2013-07-10 23:26:00,73.8,68.6,29.71,South,172,5.4,7.6,84,0.00,,CLR,0.00,VWS V14.00,2013-07-11 03:26:00,
2013-07-10 23:33:00,73.8,69.0,29.71,South,181,4.0,8.1,85,0.00,,CLR,0.00,VWS V14.00,2013-07-11 03:33:00,
2013-07-10 23:40:00,73.8,69.0,29.71,SSW,211,3.6,8.1,85,0.00,,CLR,0.00,VWS V14.00,2013-07-11 03:40:00,
2013-07-10 23:47:00,73.8,69.0,29.71,SE,142,3.6,6.3,85,0.00,,CLR,0.00,VWS V14.00,2013-07-11 03:47:00,
2013-07-10 23:54:00,73.8,69.3,29.68,SSW,198,4.9,7.6,86,0.00,,CLR,0.00,VWS V14.00,2013-07-11 03:54:00,